Fujiiwa Maru — JH3357 — position and weather

sailwx.info

Track history (hours):
 
Tides and Currents Weather Stations Pressure Air Temp Water Temp Dewpoint Dewpoint Depression Visibility Wind Speed Wind Dir Waves Ship Positions

Fujiiwa Maru

Last reported at 2017-Sep-25 06:22 UTC. Time now 2017-Oct-20 12:47 UTC.
Position N 34°53' E 139°49'.
Warning: this ship's position is 25 days out of date.

Length 84 m; draft 5 m.

Type: Cargo ship. MMSI: 431200122.

Date/timePositionNaut miles runAvg speedWind from/ knotsBaromVisibWave heightAir tempDewpointWater temp
2017-Sep-25 06:22N 34°53' E 139°49'611.1
2017-Sep-25 05:50N 34°57' E 139°44'411.3
2017-Sep-25 05:30N 35°01' E 139°44'612.3
2017-Sep-25 05:00N 35°07' E 139°45'612.7
2017-Sep-25 04:30N 35°13' E 139°47'612.0
2017-Sep-25 04:00N 35°19' E 139°43'611.2
2017-Sep-25 03:30N 35°24' E 139°43'612.1
2017-Sep-25 03:00N 35°28' E 139°49'2 3.8
2017-Sep-25 02:30N 35°30' E 139°50'0 0.1
2017-Sep-25 02:00N 35°30' E 139°50'5 9.2
2017-Sep-25 01:30N 35°30' E 139°44'1 1.6
2017-Sep-25 00:58N 35°31' E 139°44'0 0.0
2017-Sep-25 00:25N 35°31' E 139°44'0 0.0
2017-Sep-24 23:58N 35°31' E 139°44'0 0.0
2017-Sep-24 23:28N 35°31' E 139°44'0 0.0
2017-Sep-24 22:58N 35°31' E 139°44'0 0.0
2017-Sep-24 22:28N 35°31' E 139°44'0 0.0
2017-Sep-24 21:55N 35°31' E 139°44'0 0.0
2017-Sep-24 21:25N 35°31' E 139°44'0 0.0
2017-Sep-24 20:58N 35°31' E 139°44'0 0.0
2017-Sep-24 20:28N 35°31' E 139°44'0 0.0
2017-Sep-24 19:58N 35°31' E 139°44'0 0.0
2017-Sep-24 19:28N 35°31' E 139°44'0 0.0
2017-Sep-24 18:58N 35°31' E 139°44'0 0.0
2017-Sep-24 18:28N 35°31' E 139°44'0 0.0
2017-Sep-24 17:58N 35°31' E 139°44'0 0.0
2017-Sep-24 17:28N 35°31' E 139°44'0 0.0
2017-Sep-24 16:58N 35°31' E 139°44'0 0.0
2017-Sep-24 16:28N 35°31' E 139°44'0 0.0
2017-Sep-24 15:58N 35°31' E 139°44'0 0.0
2017-Sep-24 15:28N 35°31' E 139°44'0 0.0
2017-Sep-24 14:58N 35°31' E 139°44'0 0.0
2017-Sep-24 14:28N 35°31' E 139°44'0 0.0
2017-Sep-24 13:58N 35°31' E 139°44'0 0.0
2017-Sep-24 13:28N 35°31' E 139°44'0 0.0
2017-Sep-24 12:55N 35°31' E 139°44'0 0.0
2017-Sep-24 12:28N 35°31' E 139°44'0 0.0
2017-Sep-24 11:58N 35°31' E 139°44'0 0.0
2017-Sep-24 11:28N 35°31' E 139°44'0 0.0
2017-Sep-24 10:58N 35°31' E 139°44'0 0.0
2017-Sep-24 10:28N 35°31' E 139°44'0 0.0
2017-Sep-24 09:58N 35°31' E 139°44'0 0.0
2017-Sep-24 09:28N 35°31' E 139°44'0 0.0
2017-Sep-24 08:58N 35°31' E 139°44'0 0.0
2017-Sep-24 08:28N 35°31' E 139°44'0 0.0
2017-Sep-24 07:58N 35°31' E 139°44'0 0.0
2017-Sep-24 07:28N 35°31' E 139°44'0 0.0
2017-Sep-24 06:55N 35°31' E 139°44'0 0.0
2017-Sep-24 06:30N 35°31' E 139°44'2 3.0
2017-Sep-24 06:00N 35°29' E 139°43'4 7.4
2017-Sep-24 05:31N 35°26' E 139°44'2 2.9
2017-Sep-24 04:58N 35°24' E 139°45'0 0.0
2017-Sep-24 04:22N 35°24' E 139°45'0 0.0
2017-Sep-24 03:55N 35°24' E 139°45'0 0.0
2017-Sep-24 03:28N 35°24' E 139°45'0 0.1
2017-Sep-24 02:58N 35°24' E 139°45'0 0.1
2017-Sep-24 02:28N 35°24' E 139°45'1 2.7
2017-Sep-24 02:00N 35°25' E 139°44'5 9.5
2017-Sep-24 01:30N 35°28' E 139°39'0 0.0
2017-Sep-24 00:57N 35°28' E 139°39'0 0.0
2017-Sep-24 00:30N 35°28' E 139°39'0 0.0
2017-Sep-24 00:00N 35°28' E 139°39'0 0.0
2017-Sep-23 23:30N 35°28' E 139°39'0 0.0
2017-Sep-23 23:00N 35°28' E 139°39'0 0.0
2017-Sep-23 22:30N 35°28' E 139°39'0 0.0
2017-Sep-23 21:57N 35°28' E 139°39'0 0.0
2017-Sep-23 21:30N 35°28' E 139°39'2 4.9
2017-Sep-23 21:00N 35°27' E 139°42'4 7.3
2017-Sep-23 20:30N 35°24' E 139°45'0 0.1
2017-Sep-23 20:00N 35°24' E 139°45'  
Track history (hours):
 
Tides and Currents Weather Stations Pressure Air Temp Water Temp Dewpoint Dewpoint Depression Visibility Wind Speed Wind Dir Waves Ship Positions

Fujiiwa Maru

Last reported at 2017-Sep-25 06:22 UTC. Time now 2017-Oct-20 12:47 UTC.
Position N 34°53' E 139°49'.
Warning: this ship's position is 25 days out of date.

Length 84 m; draft 5 m.

Type: Cargo ship. MMSI: 431200122.

Date/timePositionNaut miles runAvg speedWind from/ knotsBaromVisibWave heightAir tempDewpointWater temp
2017-Sep-25 06:22N 34°53' E 139°49'611.1
2017-Sep-25 05:50N 34°57' E 139°44'411.3
2017-Sep-25 05:30N 35°01' E 139°44'612.3
2017-Sep-25 05:00N 35°07' E 139°45'612.7
2017-Sep-25 04:30N 35°13' E 139°47'612.0
2017-Sep-25 04:00N 35°19' E 139°43'611.2
2017-Sep-25 03:30N 35°24' E 139°43'612.1
2017-Sep-25 03:00N 35°28' E 139°49'2 3.8
2017-Sep-25 02:30N 35°30' E 139°50'0 0.1
2017-Sep-25 02:00N 35°30' E 139°50'5 9.2
2017-Sep-25 01:30N 35°30' E 139°44'1 1.6
2017-Sep-25 00:58N 35°31' E 139°44'0 0.0
2017-Sep-25 00:25N 35°31' E 139°44'0 0.0
2017-Sep-24 23:58N 35°31' E 139°44'0 0.0
2017-Sep-24 23:28N 35°31' E 139°44'0 0.0
2017-Sep-24 22:58N 35°31' E 139°44'0 0.0
2017-Sep-24 22:28N 35°31' E 139°44'0 0.0
2017-Sep-24 21:55N 35°31' E 139°44'0 0.0
2017-Sep-24 21:25N 35°31' E 139°44'0 0.0
2017-Sep-24 20:58N 35°31' E 139°44'0 0.0
2017-Sep-24 20:28N 35°31' E 139°44'0 0.0
2017-Sep-24 19:58N 35°31' E 139°44'0 0.0
2017-Sep-24 19:28N 35°31' E 139°44'0 0.0
2017-Sep-24 18:58N 35°31' E 139°44'0 0.0
2017-Sep-24 18:28N 35°31' E 139°44'0 0.0
2017-Sep-24 17:58N 35°31' E 139°44'0 0.0
2017-Sep-24 17:28N 35°31' E 139°44'0 0.0
2017-Sep-24 16:58N 35°31' E 139°44'0 0.0
2017-Sep-24 16:28N 35°31' E 139°44'0 0.0
2017-Sep-24 15:58N 35°31' E 139°44'0 0.0
2017-Sep-24 15:28N 35°31' E 139°44'0 0.0
2017-Sep-24 14:58N 35°31' E 139°44'0 0.0
2017-Sep-24 14:28N 35°31' E 139°44'0 0.0
2017-Sep-24 13:58N 35°31' E 139°44'0 0.0
2017-Sep-24 13:28N 35°31' E 139°44'0 0.0
2017-Sep-24 12:55N 35°31' E 139°44'0 0.0
2017-Sep-24 12:28N 35°31' E 139°44'0 0.0
2017-Sep-24 11:58N 35°31' E 139°44'0 0.0
2017-Sep-24 11:28N 35°31' E 139°44'0 0.0
2017-Sep-24 10:58N 35°31' E 139°44'0 0.0
2017-Sep-24 10:28N 35°31' E 139°44'0 0.0
2017-Sep-24 09:58N 35°31' E 139°44'0 0.0
2017-Sep-24 09:28N 35°31' E 139°44'0 0.0
2017-Sep-24 08:58N 35°31' E 139°44'0 0.0
2017-Sep-24 08:28N 35°31' E 139°44'0 0.0
2017-Sep-24 07:58N 35°31' E 139°44'0 0.0
2017-Sep-24 07:28N 35°31' E 139°44'0 0.0
2017-Sep-24 06:55N 35°31' E 139°44'0 0.0
2017-Sep-24 06:30N 35°31' E 139°44'2 3.0
2017-Sep-24 06:00N 35°29' E 139°43'4 7.4
2017-Sep-24 05:31N 35°26' E 139°44'2 2.9
2017-Sep-24 04:58N 35°24' E 139°45'0 0.0
2017-Sep-24 04:22N 35°24' E 139°45'0 0.0
2017-Sep-24 03:55N 35°24' E 139°45'0 0.0
2017-Sep-24 03:28N 35°24' E 139°45'0 0.1
2017-Sep-24 02:58N 35°24' E 139°45'0 0.1
2017-Sep-24 02:28N 35°24' E 139°45'1 2.7
2017-Sep-24 02:00N 35°25' E 139°44'5 9.5
2017-Sep-24 01:30N 35°28' E 139°39'0 0.0
2017-Sep-24 00:57N 35°28' E 139°39'0 0.0
2017-Sep-24 00:30N 35°28' E 139°39'0 0.0
2017-Sep-24 00:00N 35°28' E 139°39'0 0.0
2017-Sep-23 23:30N 35°28' E 139°39'0 0.0
2017-Sep-23 23:00N 35°28' E 139°39'0 0.0
2017-Sep-23 22:30N 35°28' E 139°39'0 0.0
2017-Sep-23 21:57N 35°28' E 139°39'0 0.0
2017-Sep-23 21:30N 35°28' E 139°39'2 4.9
2017-Sep-23 21:00N 35°27' E 139°42'4 7.3
2017-Sep-23 20:30N 35°24' E 139°45'0 0.1
2017-Sep-23 20:00N 35°24' E 139°45'  

Dump ship's entire track history